Terminal Aerodrome Forecast
Issued by NWS Charleston, WV

Current Version | Previous Version | Graphics & Text | Print | Product List | Glossary On
Versions: 1 2 3 4 5 6 7 8 9 10 11 12 13 14 15 16 17 18 19 20 21 22 23 24 25 26 27 28 29 30 31
062
FTUS41 KRLX 171120
TAFBKW
TAF
KBKW 171120Z 1712/1812 27010G20KT P6SM -SHSN OVC015
     FM171500 27012G22KT P6SM BKN025
     FM171900 28014G27KT P6SM SCT050
     FM180700 27004KT P6SM BKN025=

USA.gov is the U.S. government's official web portal to all federal, state and local government web resources and services.